Time;durP1;ratioP1;P1;durP2;ratioP2;P2;SDS_P1;SDS_P2;PMS_P1;PMS_P2;Temp;Humidity;BMP_temperature;BMP_pressure;BME280_temperature;BME280_humidity;BME280_pressure;Samples;Min_cycle;Max_cycle;Signal;HPM_P1;HPM_P2
2022/11/14 00:02:04;;;;;;;11.10;4.80;;;18.90;58.20;;;;;;5040140;28;20481;-70
2022/11/14 00:04:30;;;;;;;7.07;4.95;;;18.90;58.20;;;;;;5041426;28;20127;-69
2022/11/14 00:06:55;;;;;;;5.95;4.65;;;18.90;58.20;;;;;;5036007;28;20041;-69
2022/11/14 00:09:25;;;;;;;7.93;4.55;;;18.90;58.20;;;;;;5038147;28;20696;-72
2022/11/14 00:11:51;;;;;;;6.70;4.13;;;18.90;58.20;;;;;;5038937;28;20067;-70
2022/11/14 00:14:16;;;;;;;6.10;4.50;;;18.90;58.20;;;;;;5021767;28;20041;-69
2022/11/14 00:16:42;;;;;;;6.13;4.47;;;18.90;58.10;;;;;;5038882;28;20499;-69
2022/11/14 00:19:08;;;;;;;7.20;4.95;;;18.90;58.10;;;;;;5035679;28;20395;-69
2022/11/14 00:21:33;;;;;;;5.50;4.35;;;18.80;58.10;;;;;;5037070;28;20053;-71
2022/11/14 00:23:59;;;;;;;6.25;4.57;;;18.90;58.00;;;;;;5039121;28;20057;-68
2022/11/14 00:26:24;;;;;;;6.03;4.28;;;18.90;58.00;;;;;;5039172;28;20846;-69
2022/11/14 00:28:50;;;;;;;6.90;4.85;;;18.90;58.00;;;;;;5036272;28;20132;-69
2022/11/14 00:31:15;;;;;;;5.68;4.53;;;18.90;58.00;;;;;;5038116;28;20052;-72
2022/11/14 00:33:41;;;;;;;5.40;4.45;;;18.90;58.00;;;;;;5038914;28;20407;-71
2022/11/14 00:36:07;;;;;;;6.70;4.82;;;18.90;58.00;;;;;;5040461;28;20139;-70
2022/11/14 00:38:32;;;;;;;6.70;4.63;;;18.90;58.00;;;;;;5041124;28;20645;-71
2022/11/14 00:40:58;;;;;;;5.57;4.25;;;18.90;58.00;;;;;;5037204;28;20128;-70
2022/11/14 00:43:23;;;;;;;6.78;4.40;;;18.90;58.00;;;;;;5039678;28;20103;-69
2022/11/14 00:45:49;;;;;;;6.57;4.93;;;18.90;57.90;;;;;;5040362;28;20510;-71
2022/11/14 00:48:15;;;;;;;5.22;4.28;;;18.80;57.90;;;;;;5041246;28;20135;-70
2022/11/14 00:50:41;;;;;;;5.95;4.50;;;18.80;57.80;;;;;;5036836;28;20076;-69
2022/11/14 00:53:07;;;;;;;6.10;4.68;;;18.80;57.80;;;;;;5036450;28;20037;-70
2022/11/14 00:55:32;;;;;;;6.47;4.50;;;18.80;57.80;;;;;;5037994;28;20092;-71
2022/11/14 00:57:58;;;;;;;5.75;4.70;;;18.80;57.80;;;;;;5038523;28;20051;-71
2022/11/14 01:00:23;;;;;;;5.93;4.25;;;18.80;57.80;;;;;;5037646;28;20039;-71
2022/11/14 01:02:49;;;;;;;7.60;4.82;;;18.80;57.80;;;;;;5038976;28;20519;-69
2022/11/14 01:05:15;;;;;;;7.15;4.68;;;18.80;57.70;;;;;;5041191;28;20777;-69
2022/11/14 01:07:40;;;;;;;6.15;4.85;;;18.80;57.80;;;;;;5038817;28;20086;-69
2022/11/14 01:10:06;;;;;;;6.30;4.57;;;18.80;57.70;;;;;;5038556;28;20033;-70
2022/11/14 01:12:33;;;;;;;6.22;4.80;;;18.80;57.70;;;;;;5036662;28;20080;-70
2022/11/14 01:14:59;;;;;;;6.63;4.80;;;18.80;57.80;;;;;;5038188;28;20045;-69
2022/11/14 01:17:27;;;;;;;6.70;5.28;;;18.80;57.60;;;;;;5039359;28;20570;-72
2022/11/14 01:19:53;;;;;;;7.28;5.18;;;18.80;57.60;;;;;;5034638;28;20040;-72
2022/11/14 01:22:19;;;;;;;7.57;5.13;;;18.80;57.60;;;;;;5034409;28;20518;-72
2022/11/14 01:24:44;;;;;;;7.85;5.10;;;18.80;57.60;;;;;;5030064;28;20081;-71
2022/11/14 01:27:10;;;;;;;6.00;4.93;;;18.80;57.60;;;;;;5033655;28;20041;-71
2022/11/14 01:29:38;;;;;;;7.80;5.05;;;18.80;57.60;;;;;;5038823;28;20075;-71
2022/11/14 01:32:05;;;;;;;6.60;4.50;;;18.80;57.50;;;;;;5036751;28;20071;-71
2022/11/14 01:34:30;;;;;;;6.45;5.10;;;18.80;57.50;;;;;;5038223;28;20049;-70
2022/11/14 01:36:56;;;;;;;5.43;4.60;;;18.80;57.50;;;;;;5037428;28;20052;-72
2022/11/14 01:39:22;;;;;;;7.15;5.15;;;18.80;57.50;;;;;;5038260;28;20055;-70
2022/11/14 01:41:47;;;;;;;6.63;5.07;;;18.80;57.50;;;;;;5015689;28;20045;-69
2022/11/14 01:44:37;;;;;;;6.63;5.20;;;18.80;57.50;;;;;;5035072;28;20191;-72
2022/11/14 01:47:03;;;;;;;6.38;5.30;;;18.80;57.40;;;;;;5035789;28;20041;-71
2022/11/14 01:49:38;;;;;;;5.47;4.70;;;18.80;57.40;;;;;;5036338;28;20056;-70
2022/11/14 01:52:09;;;;;;;6.97;5.85;;;18.80;57.40;;;;;;5040349;28;20144;-71
2022/11/14 01:54:38;;;;;;;6.22;5.15;;;18.80;57.40;;;;;;5038504;28;20554;-71
2022/11/14 01:57:06;;;;;;;7.40;5.57;;;18.80;57.30;;;;;;5033756;28;20128;-72
2022/11/14 01:59:36;;;;;;;6.87;5.07;;;18.70;57.30;;;;;;5038143;28;20036;-72
2022/11/14 02:02:07;;;;;;;6.78;5.40;;;18.70;57.30;;;;;;5037957;28;20052;-69
2022/11/14 02:04:38;;;;;;;7.65;5.63;;;18.70;57.30;;;;;;5038135;28;20029;-71
2022/11/14 02:07:05;;;;;;;7.45;5.57;;;18.80;57.30;;;;;;5035231;28;20041;-69
2022/11/14 02:09:36;;;;;;;8.02;5.80;;;18.70;57.20;;;;;;5038944;28;20139;-71
2022/11/14 02:12:05;;;;;;;6.53;5.50;;;18.70;57.20;;;;;;5036780;28;20096;-69
2022/11/14 02:14:32;;;;;;;7.18;5.38;;;18.80;57.30;;;;;;5037623;28;20489;-70
2022/11/14 02:16:58;;;;;;;7.75;5.90;;;18.70;57.20;;;;;;5034598;28;20382;-70
2022/11/14 02:19:24;;;;;;;7.15;5.60;;;18.70;57.20;;;;;;5039795;28;20045;-70
2022/11/14 02:21:49;;;;;;;7.50;5.50;;;18.80;57.20;;;;;;5037273;28;20080;-69
2022/11/14 02:24:15;;;;;;;7.05;5.47;;;18.70;57.30;;;;;;5035703;28;20140;-70
2022/11/14 02:26:41;;;;;;;6.88;5.90;;;18.70;57.10;;;;;;5036716;28;20049;-70
2022/11/14 02:29:09;;;;;;;7.20;6.10;;;18.70;57.10;;;;;;5017235;28;20045;-71
2022/11/14 02:31:35;;;;;;;7.32;6.07;;;18.70;57.10;;;;;;5038293;28;20246;-72
2022/11/14 02:34:00;;;;;;;6.85;5.70;;;18.70;57.10;;;;;;5037432;28;20516;-69
2022/11/14 02:36:26;;;;;;;7.38;6.00;;;18.70;57.10;;;;;;5037445;28;20048;-71
2022/11/14 02:38:52;;;;;;;8.30;6.40;;;18.70;57.10;;;;;;5034146;28;20056;-70
2022/11/14 02:41:17;;;;;;;8.38;6.53;;;18.70;57.10;;;;;;5037666;28;20053;-70
2022/11/14 02:43:43;;;;;;;7.78;6.30;;;18.70;57.00;;;;;;5037260;28;20071;-71
2022/11/14 02:46:09;;;;;;;7.28;5.90;;;18.70;57.00;;;;;;5033640;28;20158;-71
2022/11/14 02:48:34;;;;;;;7.85;6.05;;;18.70;57.20;;;;;;5035374;28;20174;-71
2022/11/14 02:51:00;;;;;;;7.95;6.10;;;18.70;57.00;;;;;;5035309;28;20105;-70
2022/11/14 02:53:25;;;;;;;8.18;6.35;;;18.70;57.00;;;;;;5038066;28;20124;-72
2022/11/14 02:55:51;;;;;;;7.45;6.47;;;18.70;57.00;;;;;;5036550;28;20122;-70
2022/11/14 02:58:16;;;;;;;8.38;6.47;;;18.70;57.00;;;;;;5037043;28;20041;-70
2022/11/14 03:00:42;;;;;;;9.30;6.88;;;18.70;57.00;;;;;;5036625;28;20155;-72
2022/11/14 03:03:08;;;;;;;9.15;6.40;;;18.70;56.90;;;;;;5034990;28;20107;-69
2022/11/14 03:05:33;;;;;;;9.02;7.10;;;18.70;57.00;;;;;;5035699;28;20045;-71
2022/11/14 03:07:59;;;;;;;8.68;6.63;;;18.70;56.90;;;;;;5035834;28;20519;-69
2022/11/14 03:10:24;;;;;;;9.40;7.35;;;18.70;56.90;;;;;;5039353;28;20044;-70
2022/11/14 03:12:54;;;;;;;8.25;6.95;;;18.70;56.80;;;;;;5035539;28;20045;-69
2022/11/14 03:15:19;;;;;;;8.73;7.10;;;18.70;56.80;;;;;;5035543;28;20048;-70
2022/11/14 03:17:45;;;;;;;8.02;6.82;;;18.70;56.80;;;;;;5020685;28;20400;-71
2022/11/14 03:20:10;;;;;;;9.02;7.68;;;18.70;56.70;;;;;;5037118;28;20037;-69
2022/11/14 03:22:36;;;;;;;8.73;7.13;;;18.70;56.70;;;;;;5036284;28;20041;-71
2022/11/14 03:25:02;;;;;;;8.18;6.88;;;18.70;56.70;;;;;;5031201;28;20112;-69
2022/11/14 03:27:27;;;;;;;9.23;7.55;;;18.70;56.70;;;;;;5033920;28;20128;-68
2022/11/14 03:29:53;;;;;;;9.88;7.90;;;18.70;56.60;;;;;;5034458;28;20574;-72
2022/11/14 03:32:18;;;;;;;10.20;7.10;;;18.70;56.60;;;;;;5033724;28;20509;-71
2022/11/14 03:34:44;;;;;;;10.52;7.57;;;18.70;56.60;;;;;;5038448;28;20461;-72
2022/11/14 03:37:09;;;;;;;9.98;7.35;;;18.70;56.50;;;;;;5034803;28;20102;-71
2022/11/14 03:39:35;;;;;;;8.98;7.53;;;18.70;56.50;;;;;;5038328;28;20157;-71
2022/11/14 03:42:00;;;;;;;10.10;7.40;;;18.70;56.50;;;;;;5037132;28;20030;-72
2022/11/14 03:44:26;;;;;;;9.07;7.93;;;18.70;56.50;;;;;;5034878;28;20125;-71
2022/11/14 03:46:51;;;;;;;10.77;7.70;;;18.70;56.40;;;;;;5036665;28;20087;-72
2022/11/14 03:49:17;;;;;;;10.43;8.23;;;18.70;56.40;;;;;;5035927;28;20045;-71
2022/11/14 03:51:43;;;;;;;10.63;8.48;;;18.70;56.30;;;;;;5020074;28;20171;-69
2022/11/14 03:54:08;;;;;;;11.88;8.50;;;18.70;56.20;;;;;;5037370;28;20040;-70
2022/11/14 03:56:34;;;;;;;10.18;8.13;;;18.70;56.20;;;;;;5031732;28;20045;-69
2022/11/14 03:58:59;;;;;;;11.63;8.05;;;18.70;56.20;;;;;;5033126;28;20143;-71
2022/11/14 04:01:27;;;;;;;12.27;8.75;;;18.70;56.10;;;;;;5035335;28;20045;-71
2022/11/14 04:03:52;;;;;;;11.30;8.43;;;18.70;56.10;;;;;;5031924;28;20072;-70
2022/11/14 04:06:21;;;;;;;;;;;18.70;56.10;;;;;;5037244;28;20061;-68
2022/11/14 04:08:46;;;;;;;13.48;8.60;;;18.70;56.10;;;;;;5039459;28;19932;-72
2022/11/14 04:11:12;;;;;;;10.40;8.30;;;18.70;56.10;;;;;;5039489;28;20140;-69
2022/11/14 04:13:37;;;;;;;11.63;8.38;;;18.70;56.00;;;;;;5040379;28;20578;-71
2022/11/14 04:16:03;;;;;;;9.93;8.38;;;18.70;55.90;;;;;;5038684;28;20566;-69
2022/11/14 04:18:29;;;;;;;9.95;8.48;;;18.70;55.90;;;;;;5040177;28;20045;-70
2022/11/14 04:20:56;;;;;;;11.57;8.88;;;18.70;55.90;;;;;;5035041;28;20029;-70
2022/11/14 04:23:21;;;;;;;11.65;8.48;;;18.70;55.90;;;;;;5038641;28;20041;-71
2022/11/14 04:25:47;;;;;;;12.40;8.90;;;18.70;55.80;;;;;;5040124;28;20041;-70
2022/11/14 04:28:13;;;;;;;12.25;8.73;;;18.70;55.80;;;;;;5040435;28;20034;-71
2022/11/14 04:30:38;;;;;;;10.68;8.63;;;18.70;55.80;;;;;;5036273;28;20087;-71
2022/11/14 04:33:04;;;;;;;10.80;8.75;;;18.70;55.70;;;;;;5040557;28;20073;-71
2022/11/14 04:35:30;;;;;;;10.75;8.70;;;18.70;55.70;;;;;;5039924;28;20071;-70
2022/11/14 04:37:55;;;;;;;9.95;8.32;;;18.70;55.80;;;;;;5041583;28;20032;-70
2022/11/14 04:40:21;;;;;;;11.15;8.70;;;18.70;55.70;;;;;;5040982;28;20040;-68
2022/11/14 04:42:47;;;;;;;10.73;8.27;;;18.70;55.70;;;;;;5036897;28;20053;-71
2022/11/14 04:45:13;;;;;;;11.98;8.52;;;18.70;55.70;;;;;;5041141;28;20544;-70
2022/11/14 04:47:41;;;;;;;10.05;8.30;;;18.70;55.70;;;;;;5039816;28;20025;-70
2022/11/14 04:50:07;;;;;;;10.10;8.77;;;18.70;55.60;;;;;;5037602;28;20037;-72
2022/11/14 04:52:33;;;;;;;10.15;8.60;;;18.70;55.60;;;;;;5040217;28;20063;-70
2022/11/14 04:54:58;;;;;;;10.50;8.52;;;18.70;55.50;;;;;;5041362;28;20036;-71
2022/11/14 04:57:24;;;;;;;10.52;8.27;;;18.70;55.50;;;;;;5039819;28;20081;-69
2022/11/14 04:59:50;;;;;;;10.90;9.00;;;18.70;55.50;;;;;;5038422;28;20115;-70
2022/11/14 05:02:15;;;;;;;11.52;9.48;;;18.60;55.40;;;;;;5040499;28;20069;-72
2022/11/14 05:04:43;;;;;;;12.75;9.23;;;18.60;55.30;;;;;;5037632;28;20045;-69
2022/11/14 05:07:09;;;;;;;11.88;8.88;;;18.60;55.30;;;;;;5040345;28;20052;-70
2022/11/14 05:09:35;;;;;;;13.32;9.57;;;18.60;55.20;;;;;;5036488;28;20047;-71
2022/11/14 05:12:02;;;;;;;12.98;8.75;;;18.60;55.20;;;;;;5040337;28;20036;-70
2022/11/14 05:14:30;;;;;;;11.27;9.27;;;18.60;55.20;;;;;;5038230;28;20048;-71
2022/11/14 05:16:56;;;;;;;;;;;18.60;55.20;;;;;;5038986;28;20068;-70
2022/11/14 05:19:21;;;;;;;11.00;8.90;;;18.60;55.20;;;;;;5036182;28;20006;-70
2022/11/14 05:21:47;;;;;;;11.00;8.75;;;18.60;55.20;;;;;;5032229;28;20779;-71
2022/11/14 05:24:12;;;;;;;11.15;9.07;;;18.60;55.20;;;;;;5038275;28;20045;-71
2022/11/14 05:26:38;;;;;;;11.30;9.25;;;18.60;55.10;;;;;;5037521;28;20385;-69
2022/11/14 05:29:04;;;;;;;11.35;9.25;;;18.60;55.10;;;;;;5040049;28;20124;-69
2022/11/14 05:31:30;;;;;;;10.60;8.63;;;18.60;55.10;;;;;;5049278;28;20100;-70
2022/11/14 05:33:55;;;;;;;12.43;9.15;;;18.70;55.00;;;;;;5041025;28;20044;-71
2022/11/14 05:36:21;;;;;;;12.13;9.52;;;18.70;55.00;;;;;;5036172;28;20045;-71
2022/11/14 05:38:46;;;;;;;11.57;9.15;;;18.70;55.00;;;;;;5038206;28;20492;-70
2022/11/14 05:41:15;;;;;;;11.85;9.45;;;18.60;54.80;;;;;;5038565;28;20053;-71
2022/11/14 05:43:41;;;;;;;11.23;9.23;;;18.70;54.80;;;;;;5032346;28;20475;-69
2022/11/14 05:46:10;;;;;;;11.95;9.23;;;18.70;54.70;;;;;;5038366;28;20045;-71
2022/11/14 05:48:36;;;;;;;12.85;9.10;;;18.70;54.70;;;;;;5034455;28;21425;-72
2022/11/14 05:51:04;;;;;;;11.10;9.00;;;18.70;54.70;;;;;;5037115;28;20429;-70
2022/11/14 05:53:32;;;;;;;11.07;8.88;;;18.70;54.70;;;;;;5038450;28;20781;-69
2022/11/14 05:56:06;;;;;;;12.38;9.38;;;18.70;54.70;;;;;;5034262;28;20047;-70
2022/11/14 05:58:33;;;;;;;11.60;9.15;;;18.70;54.70;;;;;;5039637;28;20045;-70
2022/11/14 06:01:08;;;;;;;12.70;9.52;;;18.70;54.80;;;;;;5035337;28;20638;-69
2022/11/14 06:03:36;;;;;;;11.75;9.00;;;18.70;54.70;;;;;;5035156;28;20508;-71
2022/11/14 06:06:04;;;;;;;14.13;9.57;;;18.70;54.60;;;;;;5035524;28;20040;-72
2022/11/14 06:08:30;;;;;;;11.15;9.27;;;18.70;54.60;;;;;;5051132;28;20079;-70
2022/11/14 06:11:00;;;;;;;11.48;9.27;;;18.70;54.60;;;;;;5018718;28;20040;-69
2022/11/14 06:13:25;;;;;;;12.02;9.45;;;18.70;54.50;;;;;;5037066;28;20094;-70
2022/11/14 06:15:51;;;;;;;13.45;9.32;;;18.70;54.50;;;;;;5020709;28;20029;-71
2022/11/14 06:18:16;;;;;;;12.52;9.65;;;18.60;54.40;;;;;;5035501;28;20052;-70
2022/11/14 06:20:42;;;;;;;12.70;9.32;;;18.70;54.50;;;;;;5036761;28;20127;-71
2022/11/14 06:23:08;;;;;;;11.68;9.15;;;18.70;54.40;;;;;;5037586;28;20040;-69
2022/11/14 06:25:33;;;;;;;12.75;10.15;;;18.70;54.40;;;;;;5034358;28;20049;-71
2022/11/14 06:28:01;;;;;;;12.02;9.50;;;18.70;54.40;;;;;;5036877;28;20063;-70
2022/11/14 06:30:27;;;;;;;13.38;9.52;;;18.60;54.30;;;;;;5034098;28;20404;-68
2022/11/14 06:32:57;;;;;;;12.82;9.52;;;18.70;54.30;;;;;;5035585;28;20052;-72
2022/11/14 06:35:23;;;;;;;13.50;9.65;;;18.70;54.20;;;;;;5034290;28;20071;-71
2022/11/14 06:37:49;;;;;;;13.55;9.80;;;18.70;54.20;;;;;;5035726;28;20578;-69
2022/11/14 06:40:15;;;;;;;13.30;9.80;;;18.70;54.10;;;;;;5037106;28;20052;-69
2022/11/14 06:42:40;;;;;;;12.52;9.82;;;18.70;54.20;;;;;;5036488;28;20622;-69
2022/11/14 06:45:06;;;;;;;10.77;9.15;;;18.70;54.10;;;;;;5032805;28;20045;-71
2022/11/14 06:47:32;;;;;;;14.27;10.38;;;18.70;54.10;;;;;;5034578;28;20053;-70
2022/11/14 06:49:57;;;;;;;14.07;10.23;;;18.70;54.10;;;;;;5032348;28;20094;-69
2022/11/14 06:52:24;;;;;;;13.80;9.85;;;18.70;54.20;;;;;;5033751;28;20136;-68
2022/11/14 06:54:50;;;;;;;15.85;9.88;;;18.70;54.30;;;;;;5033048;28;20044;-71
2022/11/14 06:57:15;;;;;;;13.90;10.32;;;18.70;54.40;;;;;;5031066;28;20037;-69
2022/11/14 06:59:41;;;;;;;15.05;10.25;;;18.70;54.40;;;;;;5034493;28;20145;-70
2022/11/14 07:02:11;;;;;;;14.10;10.75;;;18.70;54.50;;;;;;5037460;28;20234;-69
2022/11/14 07:04:36;;;;;;;12.20;9.45;;;18.70;54.60;;;;;;5035075;28;20041;-71
2022/11/14 07:07:02;;;;;;;17.42;10.25;;;18.70;54.50;;;;;;5028842;28;20465;-70
2022/11/14 07:09:28;;;;;;;14.02;10.48;;;18.80;54.60;;;;;;5030253;28;20112;-68
2022/11/14 07:11:57;;;;;;;15.73;10.45;;;18.70;54.40;;;;;;5028674;28;20380;-70
2022/11/14 07:14:23;;;;;;;20.02;10.70;;;18.70;54.40;;;;;;5024931;28;20052;-70
2022/11/14 07:16:49;;;;;;;14.52;9.77;;;18.80;54.40;;;;;;5029939;28;20037;-70
2022/11/14 07:19:16;;;;;;;15.25;10.93;;;18.80;54.40;;;;;;5007515;28;20136;-70
2022/11/14 07:21:42;;;;;;;13.98;10.48;;;18.80;55.10;;;;;;5048184;28;20194;-70
2022/11/14 07:24:11;;;;;;;15.57;10.60;;;18.80;54.50;;;;;;5026996;28;20060;-71
2022/11/14 07:26:40;;;;;;;18.83;10.75;;;18.80;54.50;;;;;;5027428;28;20052;-70
2022/11/14 07:29:05;;;;;;;15.48;10.70;;;18.80;54.50;;;;;;5030931;28;20067;-70
2022/11/14 07:31:31;;;;;;;17.05;10.75;;;18.80;54.40;;;;;;5032983;28;20464;-72
2022/11/14 07:34:50;;;;;;;;;;;18.80;54.50;;;;;;5025284;28;20345;-76
2022/11/14 07:37:09;;;;;;;14.02;10.45;;;18.80;54.40;;;;;;5015766;28;19928;-76
2022/11/14 07:42:13;;;;;;;16.13;10.82;;;18.70;54.50;;;;;;5134822;22;20080;-73
2022/11/14 07:44:45;;;;;;;14.88;10.60;;;18.70;54.60;;;;;;5000844;28;20175;-76
2022/11/14 07:47:11;;;;;;;15.55;11.13;;;18.60;54.70;;;;;;5011675;28;20125;-77
2022/11/14 07:49:36;;;;;;;14.25;10.57;;;18.70;54.80;;;;;;5002170;28;20045;-78
2022/11/14 07:52:02;;;;;;;17.40;11.48;;;18.70;54.70;;;;;;5029338;28;20398;-79
2022/11/14 07:54:27;;;;;;;16.20;11.38;;;18.70;54.70;;;;;;5019755;28;20135;-73
2022/11/14 07:57:21;;;;;;;20.35;12.40;;;18.60;54.60;;;;;;4997740;28;20045;-79
2022/11/14 07:59:47;;;;;;;21.00;11.82;;;18.60;54.60;;;;;;5034151;28;20071;-75
2022/11/14 08:02:14;;;;;;;15.45;11.38;;;18.70;54.70;;;;;;5035598;28;20071;-74
2022/11/14 08:04:41;;;;;;;14.77;11.48;;;18.60;54.50;;;;;;5033404;28;20036;-76
2022/11/14 08:07:08;;;;;;;17.70;12.60;;;18.60;54.40;;;;;;5034825;28;20045;-76
2022/11/14 08:09:36;;;;;;;22.58;12.25;;;18.60;54.40;;;;;;5017216;28;20105;-75
2022/11/14 08:12:05;;;;;;;17.55;11.55;;;18.60;54.30;;;;;;4999415;28;20226;-76
2022/11/14 08:14:34;;;;;;;18.08;13.02;;;18.60;54.20;;;;;;5019920;28;20089;-75
2022/11/14 08:17:03;;;;;;;16.33;11.32;;;18.60;54.20;;;;;;5016830;28;20637;-77
2022/11/14 08:19:29;;;;;;;20.63;12.18;;;18.60;54.20;;;;;;5002219;28;20040;-77
2022/11/14 08:21:58;;;;;;;17.83;12.48;;;18.60;54.20;;;;;;5019569;28;20453;-75
2022/11/14 08:24:24;;;;;;;16.23;11.80;;;18.60;54.30;;;;;;5019827;28;20033;-73
2022/11/14 08:26:50;;;;;;;16.80;11.93;;;18.70;54.30;;;;;;5002545;28;20095;-71
2022/11/14 08:29:16;;;;;;;17.77;12.40;;;18.60;54.20;;;;;;5036595;28;20049;-75
2022/11/14 08:31:45;;;;;;;18.55;11.85;;;18.60;54.20;;;;;;5030512;28;20029;-76
2022/11/14 08:34:15;;;;;;;19.10;12.77;;;18.60;54.30;;;;;;5015566;28;20079;-71
2022/11/14 08:36:47;;;;;;;19.55;12.20;;;18.60;54.00;;;;;;5043325;28;20566;-72
2022/11/14 08:39:22;;;;;;;16.77;12.52;;;18.60;54.00;;;;;;5020144;28;20061;-78
2022/11/14 08:41:57;;;;;;;17.75;12.65;;;18.60;53.80;;;;;;5038311;28;20152;-76
2022/11/14 08:44:23;;;;;;;16.80;11.80;;;18.60;54.70;;;;;;5020966;28;20420;-77
2022/11/14 08:46:52;;;;;;;19.80;13.35;;;18.60;53.90;;;;;;5019842;28;20049;-72
2022/11/14 08:49:21;;;;;;;17.02;12.27;;;18.60;53.90;;;;;;5022561;28;20055;-76
2022/11/14 08:51:50;;;;;;;23.70;13.63;;;18.60;53.90;;;;;;5015726;28;20049;-79
2022/11/14 08:54:16;;;;;;;19.85;12.20;;;18.60;53.90;;;;;;5038111;28;20049;-75
2022/11/14 08:56:42;;;;;;;19.50;12.15;;;18.60;53.80;;;;;;5004212;28;20040;-77
2022/11/14 08:59:08;;;;;;;17.00;12.07;;;18.60;53.90;;;;;;5020346;28;20151;-76
2022/11/14 09:01:34;;;;;;;25.75;12.90;;;18.70;54.20;;;;;;5033835;28;20041;-71
2022/11/14 09:04:00;;;;;;;16.70;11.82;;;18.70;54.20;;;;;;5035470;28;20044;-70
2022/11/14 09:06:26;;;;;;;17.60;11.85;;;18.70;54.20;;;;;;5038547;28;20043;-71
2022/11/14 09:08:55;;;;;;;18.88;11.88;;;18.70;54.10;;;;;;5033391;28;20396;-68
2022/11/14 09:11:21;;;;;;;20.10;12.23;;;18.70;54.30;;;;;;5036552;28;20048;-71
2022/11/14 09:13:47;;;;;;;20.20;12.68;;;18.80;54.40;;;;;;5034498;28;20034;-67
2022/11/14 09:16:13;;;;;;;17.27;12.40;;;18.70;54.40;;;;;;5034474;28;21100;-69
2022/11/14 09:18:42;;;;;;;22.17;12.25;;;18.80;54.50;;;;;;5006579;28;20179;-70
2022/11/14 09:21:09;;;;;;;18.65;12.55;;;18.80;54.40;;;;;;5024790;28;20053;-69
2022/11/14 09:23:36;;;;;;;17.80;12.57;;;18.80;54.40;;;;;;5038837;28;20045;-71
2022/11/14 09:26:06;;;;;;;17.98;12.18;;;18.80;54.40;;;;;;5022304;28;20444;-68
2022/11/14 09:28:33;;;;;;;17.55;11.57;;;18.80;54.50;;;;;;5026973;28;20053;-69
2022/11/14 09:31:01;;;;;;;17.35;11.38;;;18.80;54.50;;;;;;5039230;28;20056;-69
2022/11/14 09:33:27;;;;;;;18.08;12.40;;;18.90;54.60;;;;;;5027126;28;20270;-69
2022/11/14 09:36:00;;;;;;;16.83;11.85;;;18.80;54.60;;;;;;5023733;28;20045;-69
2022/11/14 09:38:26;;;;;;;18.05;11.75;;;18.90;54.60;;;;;;5011855;28;20109;-68
2022/11/14 09:41:07;;;;;;;16.85;12.27;;;18.90;54.60;;;;;;5015651;28;20053;-66
2022/11/14 09:44:06;;;;;;;16.60;12.27;;;18.90;54.60;;;;;;5026024;28;20141;-67
2022/11/14 09:46:45;;;;;;;18.60;11.48;;;18.90;54.60;;;;;;5024809;28;20099;-68
2022/11/14 09:49:36;;;;;;;16.92;11.70;;;18.90;54.60;;;;;;5036129;28;20037;-66
2022/11/14 09:52:15;;;;;;;19.67;11.88;;;18.90;54.60;;;;;;5027178;28;20526;-67
2022/11/14 09:54:50;;;;;;;17.30;12.05;;;18.80;54.80;;;;;;5043464;28;20120;-68
2022/11/14 09:57:18;;;;;;;17.10;11.77;;;18.90;55.30;;;;;;5043057;28;20448;-67
2022/11/14 09:59:44;;;;;;;20.58;12.07;;;18.90;54.50;;;;;;5044768;28;20045;-68
2022/11/14 10:02:33;;;;;;;17.85;12.25;;;18.90;54.50;;;;;;5025912;28;20091;-69
2022/11/14 10:05:15;;;;;;;17.77;12.70;;;18.90;54.50;;;;;;5044411;28;20045;-68
2022/11/14 10:07:55;;;;;;;15.35;11.05;;;18.90;54.40;;;;;;5040104;28;20043;-71
2022/11/14 10:10:49;;;;;;;19.10;12.90;;;18.90;54.40;;;;;;5023052;28;20075;-70
2022/11/14 10:13:33;;;;;;;19.17;13.10;;;18.90;54.20;;;;;;5021630;28;20354;-71
2022/11/14 10:16:32;;;;;;;20.40;13.23;;;18.90;54.10;;;;;;5026208;28;20088;-71
2022/11/14 10:19:11;;;;;;;17.83;12.88;;;18.90;54.00;;;;;;5019698;28;20091;-70
2022/11/14 10:21:48;;;;;;;18.85;13.55;;;18.90;54.10;;;;;;5045807;28;20775;-68
2022/11/14 10:24:35;;;;;;;21.00;13.63;;;18.90;54.10;;;;;;5035349;28;20048;-70
2022/11/14 10:27:06;;;;;;;18.45;13.50;;;18.80;54.00;;;;;;5021680;28;20304;-69
2022/11/14 10:29:59;;;;;;;27.15;13.48;;;18.90;54.10;;;;;;5042676;28;20037;-69
2022/11/14 10:32:40;;;;;;;20.38;14.15;;;18.80;54.00;;;;;;5036085;28;20056;-68
2022/11/14 10:35:35;;;;;;;31.08;14.38;;;18.80;54.10;;;;;;5025328;28;20063;-68
2022/11/14 10:38:33;;;;;;;21.58;15.45;;;18.90;54.20;;;;;;5027189;28;20128;-67
2022/11/14 10:41:05;;;;;;;22.25;14.48;;;18.90;54.20;;;;;;5024645;28;20068;-69
2022/11/14 10:43:48;;;;;;;21.67;14.25;;;18.90;54.20;;;;;;5043030;28;20638;-69
2022/11/14 10:46:47;;;;;;;25.40;14.60;;;18.90;54.20;;;;;;5043980;28;20087;-69
2022/11/14 10:49:19;;;;;;;24.20;15.13;;;18.90;54.20;;;;;;5019360;28;20527;-69
2022/11/14 10:52:05;;;;;;;19.00;14.27;;;18.90;54.20;;;;;;5036577;28;20100;-69
2022/11/14 10:55:05;;;;;;;20.80;14.48;;;18.90;54.10;;;;;;5036765;28;20567;-72
2022/11/14 10:57:41;;;;;;;22.13;15.05;;;18.90;54.00;;;;;;5042422;28;20119;-71
2022/11/14 11:00:18;;;;;;;20.27;13.48;;;18.90;54.00;;;;;;5037814;28;20073;-69
2022/11/14 11:03:11;;;;;;;18.03;13.93;;;18.90;53.90;;;;;;5030944;28;20044;-70
2022/11/14 11:06:03;;;;;;;21.83;14.40;;;18.90;53.80;;;;;;5040019;28;20099;-71
2022/11/14 11:11:30;;;;;;;20.58;14.35;;;18.90;53.90;;;;;;5013636;28;20159;-70
2022/11/14 11:13:59;;;;;;;20.30;13.95;;;18.90;53.90;;;;;;5039495;28;20119;-71
2022/11/14 11:16:32;;;;;;;19.70;14.40;;;18.90;53.80;;;;;;5004787;28;20045;-72
2022/11/14 11:19:16;;;;;;;19.58;14.23;;;18.90;53.80;;;;;;5021960;28;20124;-71
2022/11/14 11:21:50;;;;;;;20.10;14.38;;;18.90;53.70;;;;;;5034338;28;20090;-74
2022/11/14 11:24:42;;;;;;;21.45;14.02;;;18.90;53.80;;;;;;5036730;28;20063;-72
2022/11/14 11:27:21;;;;;;;19.25;13.63;;;18.90;53.70;;;;;;5043765;28;20076;-72
2022/11/14 11:30:16;;;;;;;18.75;13.18;;;18.90;53.70;;;;;;5024849;28;20136;-72
2022/11/14 11:32:42;;;;;;;19.05;13.57;;;18.90;53.70;;;;;;5025816;28;20052;-72
2022/11/14 11:35:12;;;;;;;19.85;13.85;;;19.00;53.80;;;;;;5028023;28;20037;-72
2022/11/14 11:37:53;;;;;;;18.95;13.35;;;19.00;53.70;;;;;;5037468;28;20053;-73
2022/11/14 11:40:27;;;;;;;20.90;13.73;;;19.00;53.70;;;;;;5035040;28;20171;-73
2022/11/14 11:43:03;;;;;;;19.13;14.27;;;19.00;53.60;;;;;;5033604;28;20052;-71
2022/11/14 11:45:34;;;;;;;19.73;13.48;;;19.00;53.50;;;;;;5031635;28;20052;-73
2022/11/14 11:48:16;;;;;;;19.67;13.75;;;19.10;53.60;;;;;;5038279;28;20076;-72
2022/11/14 11:50:42;;;;;;;19.40;13.68;;;19.10;53.40;;;;;;5036187;28;20076;-72
2022/11/14 11:53:28;;;;;;;18.40;14.00;;;19.10;53.40;;;;;;5043155;28;20259;-72
2022/11/14 11:56:03;;;;;;;18.23;13.23;;;19.10;53.30;;;;;;5011631;28;20037;-72
2022/11/14 11:58:49;;;;;;;17.15;13.05;;;19.10;53.30;;;;;;5023487;28;20114;-73
2022/11/14 12:01:16;;;;;;;22.10;13.82;;;19.20;53.30;;;;;;5042354;28;20068;-70
2022/11/14 12:03:47;;;;;;;16.98;13.02;;;19.20;53.20;;;;;;5025996;28;20132;-71
2022/11/14 12:06:24;;;;;;;18.77;13.43;;;19.20;53.10;;;;;;5035344;28;20096;-72
2022/11/14 12:08:55;;;;;;;18.33;13.32;;;19.20;53.00;;;;;;5038792;28;20053;-72
2022/11/14 12:11:28;;;;;;;17.60;13.23;;;19.30;53.00;;;;;;5020624;28;20532;-71
2022/11/14 12:14:09;;;;;;;17.27;12.35;;;19.30;53.00;;;;;;5014631;28;20064;-70
2022/11/14 12:16:56;;;;;;;18.40;13.23;;;19.30;52.90;;;;;;5032362;28;20102;-70
2022/11/14 12:19:56;;;;;;;19.50;12.80;;;19.30;52.80;;;;;;5037077;28;20329;-72
2022/11/14 12:22:40;;;;;;;17.23;12.90;;;19.30;52.90;;;;;;5041200;28;20044;-69
2022/11/14 12:25:25;;;;;;;19.08;12.82;;;19.30;52.80;;;;;;5020028;28;20060;-71
2022/11/14 12:27:56;;;;;;;17.98;12.25;;;19.40;52.70;;;;;;5032603;28;20056;-68
2022/11/14 12:30:24;;;;;;;20.20;12.93;;;19.40;52.70;;;;;;5048015;28;20056;-71
2022/11/14 12:33:10;;;;;;;21.30;12.77;;;19.40;52.60;;;;;;5043946;28;20049;-69
2022/11/14 12:35:38;;;;;;;16.63;12.43;;;19.40;52.50;;;;;;5024441;28;20157;-73
2022/11/14 12:38:14;;;;;;;16.10;11.60;;;19.40;52.50;;;;;;5028915;28;20080;-71
2022/11/14 12:40:51;;;;;;;17.83;12.27;;;19.40;52.40;;;;;;5021364;28;20092;-71
2022/11/14 12:43:35;;;;;;;18.97;12.97;;;19.40;52.30;;;;;;5044810;28;20306;-72
2022/11/14 12:46:08;;;;;;;16.30;12.18;;;19.40;52.30;;;;;;5040855;28;20518;-72
2022/11/14 12:48:45;;;;;;;16.70;12.63;;;19.40;52.30;;;;;;5008680;28;20043;-72
2022/11/14 12:51:30;;;;;;;17.48;12.40;;;19.40;52.20;;;;;;4989498;28;20055;-72
2022/11/14 12:53:56;;;;;;;19.92;12.52;;;19.40;52.10;;;;;;5022210;28;20152;-72
2022/11/14 12:56:28;;;;;;;17.52;13.10;;;19.40;52.20;;;;;;5044212;28;20721;-71